Damba Airport


Codes: FNDB/
Name: Damba Airport
City: Damba
Country: Angola
Elevation: 3648 ft.

Photos at Damba Airport


   Photos courtesy of SpottingLog. You can add your own sightings and photos by signing up for a free trial today.



No photos found.

Weather at Damba Airport


Time (UTC)DescriptionTempratureWindCloud coverageVisibilityPressureHumidity
13-Jun-2024 03:00Broken Clouds18°C4 mph, SE64%10000m1016hPa48%
13-Jun-2024 06:00Scattered Clouds19°C4 mph, SE34%10000m1016hPa49%
13-Jun-2024 09:00Clear Sky28°C9 mph, E7%10000m1015hPa28%
13-Jun-2024 12:00Scattered Clouds32°C7 mph, E32%10000m1012hPa25%
13-Jun-2024 15:00Broken Clouds31°C7 mph, E61%10000m1010hPa25%
13-Jun-2024 18:00Broken Clouds24°C4 mph, E75%10000m1013hPa40%
13-Jun-2024 21:00Few Clouds21°C0 mph, SW20%10000m1015hPa45%
14-Jun-2024 00:00Few Clouds19°C4 mph, SW12%10000m1015hPa57%
14-Jun-2024 03:00Clear Sky17°C2 mph, SW2%10000m1014hPa65%
14-Jun-2024 06:00Clear Sky19°C2 mph, SE4%10000m1016hPa60%
14-Jun-2024 09:00Clear Sky30°C4 mph, SE5%10000m1015hPa28%
14-Jun-2024 12:00Clear Sky34°C4 mph, E2%10000m1011hPa22%
14-Jun-2024 15:00Clear Sky33°C2 mph, E0%10000m1009hPa22%
14-Jun-2024 18:00Clear Sky24°C2 mph, S1%10000m1012hPa41%
14-Jun-2024 21:00Clear Sky21°C4 mph, SW0%10000m1014hPa53%
15-Jun-2024 00:00Clear Sky17°C4 mph, W0%10000m1013hPa72%
15-Jun-2024 03:00Clear Sky16°C2 mph, SW0%10000m1012hPa81%
15-Jun-2024 06:00Clear Sky18°C2 mph, SE0%10000m1014hPa70%
15-Jun-2024 09:00Clear Sky30°C7 mph, SE0%10000m1013hPa23%
15-Jun-2024 12:00Clear Sky33°C7 mph, E0%10000m1009hPa17%
15-Jun-2024 15:00Clear Sky33°C4 mph, E0%10000m1008hPa17%
15-Jun-2024 18:00Clear Sky23°C2 mph, SE0%10000m1011hPa36%
15-Jun-2024 21:00Clear Sky20°C4 mph, SW0%10000m1013hPa54%
16-Jun-2024 00:00Clear Sky18°C4 mph, SW0%10000m1013hPa71%
16-Jun-2024 03:00Clear Sky16°C2 mph, SW3%10000m1012hPa83%
16-Jun-2024 06:00Clear Sky17°C2 mph, SE2%10000m1014hPa73%
16-Jun-2024 09:00Clear Sky29°C4 mph, SE5%10000m1012hPa21%
16-Jun-2024 12:00Clear Sky34°C4 mph, SE5%10000m1009hPa14%
16-Jun-2024 15:00Scattered Clouds32°C2 mph, E50%10000m1008hPa16%
16-Jun-2024 18:00Broken Clouds23°C0 mph, SW66%10000m1011hPa34%
16-Jun-2024 21:00Scattered Clouds19°C4 mph, W50%10000m1014hPa59%
17-Jun-2024 00:00Scattered Clouds16°C4 mph, SW37%10000m1014hPa89%
17-Jun-2024 03:00Broken Clouds16°C2 mph, SW67%10000m1013hPa95%
17-Jun-2024 06:00Broken Clouds17°C2 mph, S58%10000m1015hPa82%
17-Jun-2024 09:00Few Clouds29°C2 mph, SE11%10000m1014hPa29%
17-Jun-2024 12:00Clear Sky33°C2 mph, E7%10000m1010hPa15%
17-Jun-2024 15:00Clear Sky32°C2 mph, W5%10000m1009hPa20%
17-Jun-2024 18:00Few Clouds22°C2 mph, W20%10000m1012hPa48%
17-Jun-2024 21:00Clear Sky19°C4 mph, SW9%10000m1015hPa64%
18-Jun-2024 00:00Few Clouds17°C4 mph, SW15%10000m1014hPa89%